Time;durP1;ratioP1;P1;durP2;ratioP2;P2;SDS_P1;SDS_P2;PMS_P1;PMS_P2;Temp;Humidity;BMP_temperature;BMP_pressure;BME280_temperature;BME280_humidity;BME280_pressure;Samples;Min_cycle;Max_cycle;Signal;HPM_P1;HPM_P2
2023/08/16 00:01:26;;;;;;;12.90;9.10;;;;;;;19.81;100.00;101501.25;107033;1250;61610;-71
2023/08/16 00:03:55;;;;;;;9.30;8.00;;;;;;;19.77;100.00;101502.54;107060;1252;60868;-71
2023/08/16 00:06:24;;;;;;;11.50;8.80;;;;;;;19.75;100.00;101505.76;107096;1248;59882;-71
2023/08/16 00:08:58;;;;;;;12.20;8.90;;;;;;;19.82;100.00;101502.39;107128;1248;62716;-72
2023/08/16 00:11:29;;;;;;;13.80;9.50;;;;;;;19.97;100.00;101503.98;107714;1239;62718;-72
2023/08/16 00:13:58;;;;;;;10.40;8.10;;;;;;;19.99;100.00;101503.79;107690;1238;60763;-71
2023/08/16 00:16:26;;;;;;;15.80;8.80;;;;;;;19.96;100.00;101506.52;107757;1238;72875;-71
2023/08/16 00:18:55;;;;;;;9.10;8.10;;;;;;;19.95;100.00;101505.60;107838;1240;72477;-70
2023/08/16 00:21:24;;;;;;;10.30;8.90;;;;;;;19.86;100.00;101499.77;107733;1238;70037;-71
2023/08/16 00:23:53;;;;;;;15.50;9.30;;;;;;;19.90;100.00;101516.34;107768;1248;73717;-72
2023/08/16 00:26:23;;;;;;;15.00;9.10;;;;;;;19.93;100.00;101518.88;107755;1237;62907;-74
2023/08/16 00:28:53;;;;;;;14.10;8.60;;;;;;;19.98;100.00;101518.76;107754;1239;60019;-71
2023/08/16 00:31:23;;;;;;;10.40;9.10;;;;;;;20.02;100.00;101513.02;107712;1247;62464;-70
2023/08/16 00:33:51;;;;;;;11.60;8.90;;;;;;;20.05;100.00;101510.23;107675;1238;72238;-70
2023/08/16 00:36:20;;;;;;;9.90;8.60;;;;;;;20.14;100.00;101509.13;107675;1237;61614;-69
2023/08/16 00:38:49;;;;;;;12.50;9.20;;;;;;;20.17;100.00;101509.04;107656;1242;73770;-71
2023/08/16 00:41:19;;;;;;;13.70;9.10;;;;;;;20.27;100.00;101512.56;107747;1239;62426;-68
2023/08/16 00:43:48;;;;;;;10.10;8.30;;;;;;;20.37;100.00;101513.86;107773;1239;57449;-70
2023/08/16 00:46:18;;;;;;;13.80;9.60;;;;;;;20.36;100.00;101516.80;107761;1238;72321;-69
2023/08/16 00:48:48;;;;;;;12.20;8.60;;;;;;;20.39;100.00;101521.80;107699;1241;61158;-69
2023/08/16 00:51:17;;;;;;;9.30;7.60;;;;;;;20.35;100.00;101522.52;107704;1240;70448;-70
2023/08/16 00:53:46;;;;;;;11.70;8.60;;;;;;;20.32;100.00;101525.56;107734;1242;73931;-69
2023/08/16 00:56:16;;;;;;;10.30;7.90;;;;;;;20.24;100.00;101529.35;107699;1238;58777;-69
2023/08/16 00:58:45;;;;;;;11.70;9.10;;;;;;;20.22;100.00;101530.60;107696;1239;59023;-69
2023/08/16 01:01:15;;;;;;;14.90;9.60;;;;;;;20.27;100.00;101537.41;107679;1244;72158;-70
2023/08/16 01:03:46;;;;;;;17.20;9.00;;;;;;;20.25;100.00;101537.58;107669;1238;73062;-71
2023/08/16 01:06:15;;;;;;;12.30;9.20;;;;;;;20.14;100.00;101538.71;107743;1241;69192;-71
2023/08/16 01:08:44;;;;;;;12.50;9.80;;;;;;;19.99;100.00;101541.80;107822;1248;73644;-70
2023/08/16 01:11:38;;;;;;;13.70;10.30;;;;;;;19.89;100.00;101538.76;107714;1242;63762;-70
2023/08/16 01:14:27;;;;;;;11.00;9.40;;;;;;;19.75;100.00;101539.30;107555;1242;60124;-70
2023/08/16 01:16:57;;;;;;;15.00;10.60;;;;;;;19.71;100.00;101541.30;107741;1243;63345;-71
2023/08/16 01:19:32;;;;;;;13.40;9.90;;;;;;;19.73;100.00;101542.71;107456;1245;61415;-70
2023/08/16 01:22:25;;;;;;;13.90;10.60;;;;;;;19.67;100.00;101543.48;107475;1240;59761;-70
2023/08/16 01:25:34;;;;;;;13.40;10.70;;;;;;;19.73;100.00;101539.77;107575;1241;73713;-70
2023/08/16 01:28:03;;;;;;;14.00;9.50;;;;;;;19.77;100.00;101536.49;107576;1251;63073;-70
2023/08/16 01:30:33;;;;;;;13.80;10.30;;;;;;;19.78;100.00;101532.30;107618;1251;62017;-70
2023/08/16 01:33:08;;;;;;;17.40;11.00;;;;;;;19.86;100.00;101531.38;107574;1247;74756;-70
2023/08/16 01:35:39;;;;;;;16.00;10.10;;;;;;;19.89;100.00;101528.45;107517;1241;61564;-71
2023/08/16 01:38:12;;;;;;;18.10;9.60;;;;;;;19.94;100.00;101526.52;107472;1241;59809;-73
2023/08/16 01:40:55;;;;;;;13.20;9.70;;;;;;;19.93;100.00;101525.25;107365;1238;73647;-68
2023/08/16 01:43:24;;;;;;;12.60;8.80;;;;;;;19.86;100.00;101516.38;107613;1241;62204;-72
2023/08/16 01:45:54;;;;;;;13.70;8.90;;;;;;;19.80;100.00;101505.40;107573;1242;59061;-71
2023/08/16 01:48:26;;;;;;;10.40;8.80;;;;;;;19.85;100.00;101487.42;107537;1238;73402;-70
2023/08/16 01:50:55;;;;;;;11.70;8.60;;;;;;;19.94;100.00;101464.91;107395;1245;72044;-70
2023/08/16 01:53:25;;;;;;;11.00;8.50;;;;;;;19.90;100.00;101427.75;107551;1238;70671;-69
2023/08/16 01:55:54;;;;;;;10.40;7.80;;;;;;;19.88;100.00;101407.09;107614;1238;64032;-70
2023/08/16 01:58:23;;;;;;;14.30;8.00;;;;;;;20.24;100.00;101409.83;107558;1240;58964;-70
2023/08/16 02:00:53;;;;;;;12.30;7.80;;;;;;;20.65;100.00;101423.48;107651;1241;58854;-69
2023/08/16 02:03:22;;;;;;;11.90;7.60;;;;;;;20.90;100.00;101430.09;107723;1241;62184;-70
2023/08/16 02:05:51;;;;;;;10.70;7.20;;;;;;;21.19;100.00;101429.84;107694;1238;61856;-68
2023/08/16 02:08:20;;;;;;;15.70;9.80;;;;;;;21.43;100.00;101429.08;107644;1241;60018;-67
2023/08/16 02:10:49;;;;;;;12.60;8.40;;;;;;;21.55;100.00;101433.05;107674;1241;64113;-68
2023/08/16 02:13:18;;;;;;;13.10;9.00;;;;;;;21.62;100.00;101437.27;107543;1242;58885;-69
2023/08/16 02:15:47;;;;;;;13.20;8.30;;;;;;;21.63;100.00;101439.33;107653;1251;58880;-69
2023/08/16 02:18:16;;;;;;;13.50;9.40;;;;;;;21.59;100.00;101445.21;107653;1238;72696;-69
2023/08/16 02:20:52;;;;;;;12.30;8.90;;;;;;;21.61;100.00;101448.34;107593;1248;62820;-69
2023/08/16 02:23:21;;;;;;;14.00;8.80;;;;;;;21.59;100.00;101451.22;107694;1249;68209;-70
2023/08/16 02:25:50;;;;;;;14.80;8.40;;;;;;;21.63;100.00;101448.04;107627;1241;71797;-68
2023/08/16 02:28:19;;;;;;;19.70;9.10;;;;;;;21.59;100.00;101451.75;107474;1251;61540;-69
2023/08/16 02:30:48;;;;;;;12.50;8.60;;;;;;;21.54;100.00;101455.90;107531;1249;62248;-69
2023/08/16 02:33:18;;;;;;;12.90;9.90;;;;;;;21.49;100.00;101454.67;107710;1251;63050;-69
2023/08/16 02:35:48;;;;;;;18.80;8.90;;;;;;;21.44;100.00;101456.41;107742;1251;71948;-70
2023/08/16 02:38:18;;;;;;;15.30;9.30;;;;;;;21.47;100.00;101455.23;107704;1241;61484;-71
2023/08/16 02:40:47;;;;;;;13.70;8.70;;;;;;;21.49;100.00;101452.86;107659;1237;72875;-70
2023/08/16 02:43:16;;;;;;;14.80;10.50;;;;;;;21.50;100.00;101460.39;107629;1249;61986;-69
2023/08/16 02:45:45;;;;;;;14.50;11.10;;;;;;;21.50;100.00;101469.27;107668;1241;60007;-67
2023/08/16 02:48:14;;;;;;;16.80;10.50;;;;;;;21.41;100.00;101473.68;107679;1237;71601;-68
2023/08/16 02:50:45;;;;;;;19.30;10.60;;;;;;;21.39;100.00;101476.24;107543;1237;73111;-70
2023/08/16 02:53:16;;;;;;;13.10;10.00;;;;;;;21.40;100.00;101480.20;107607;1251;59355;-70
2023/08/16 02:55:45;;;;;;;17.70;10.00;;;;;;;21.38;100.00;101479.66;107532;1241;63472;-68
2023/08/16 02:58:14;;;;;;;18.60;10.10;;;;;;;21.40;100.00;101483.41;107557;1242;59028;-69
2023/08/16 03:00:43;;;;;;;15.60;9.80;;;;;;;21.40;100.00;101486.27;107556;1242;59176;-70
2023/08/16 03:03:12;;;;;;;14.60;9.00;;;;;;;21.37;100.00;101482.95;107598;1248;62274;-68
2023/08/16 03:05:41;;;;;;;12.90;9.90;;;;;;;21.40;100.00;101483.20;107659;1251;61990;-69
2023/08/16 03:08:10;;;;;;;14.30;9.20;;;;;;;21.34;100.00;101482.67;107588;1243;59506;-69
2023/08/16 03:10:39;;;;;;;15.40;10.30;;;;;;;21.32;100.00;101481.09;107591;1248;62617;-70
2023/08/16 03:13:08;;;;;;;14.30;9.80;;;;;;;21.31;100.00;101483.30;107596;1251;58781;-69
2023/08/16 03:15:37;;;;;;;15.40;9.90;;;;;;;21.30;100.00;101482.66;107587;1251;60849;-70
2023/08/16 03:18:06;;;;;;;14.00;9.70;;;;;;;21.27;100.00;101485.13;107652;1238;63310;-69
2023/08/16 03:20:35;;;;;;;16.80;9.80;;;;;;;21.27;100.00;101488.01;107684;1249;71779;-69
2023/08/16 03:23:04;;;;;;;13.50;9.20;;;;;;;21.26;100.00;101487.90;107630;1242;71264;-68
2023/08/16 03:25:33;;;;;;;18.70;9.80;;;;;;;21.27;100.00;101488.98;107641;1242;74228;-71
2023/08/16 03:28:03;;;;;;;16.00;9.70;;;;;;;21.32;100.00;101491.17;107681;1242;63134;-71
2023/08/16 03:30:32;;;;;;;13.10;9.40;;;;;;;21.34;100.00;101484.18;107731;1242;61327;-71
2023/08/16 03:33:03;;;;;;;15.90;10.80;;;;;;;21.40;100.00;101483.76;107649;1241;64731;-69
2023/08/16 03:35:33;;;;;;;16.10;9.80;;;;;;;21.49;100.00;101480.70;107594;1242;60660;-70
2023/08/16 03:38:03;;;;;;;12.00;10.10;;;;;;;21.57;100.00;101482.70;107658;1242;60215;-70
2023/08/16 03:40:32;;;;;;;14.80;9.70;;;;;;;21.63;100.00;101486.13;107731;1238;72765;-70
2023/08/16 03:43:01;;;;;;;17.40;9.00;;;;;;;21.68;100.00;101492.52;107617;1238;62031;-71
2023/08/16 03:45:30;;;;;;;11.30;9.50;;;;;;;21.73;100.00;101497.64;107691;1241;59095;-70
2023/08/16 03:47:59;;;;;;;15.70;10.10;;;;;;;21.77;100.00;101499.52;107763;1243;62423;-71
2023/08/16 03:50:28;;;;;;;13.80;10.30;;;;;;;21.81;100.00;101504.02;107682;1238;61744;-67
2023/08/16 03:52:59;;;;;;;16.00;10.10;;;;;;;21.85;100.00;101504.83;107731;1248;59482;-68
2023/08/16 03:55:30;;;;;;;18.80;9.60;;;;;;;21.87;100.00;101507.79;107713;1249;73494;-68
2023/08/16 03:57:59;;;;;;;14.50;9.20;;;;;;;21.91;100.00;101505.42;108406;1241;62673;-73
2023/08/16 04:00:29;;;;;;;16.70;9.80;;;;;;;21.92;100.00;101515.06;108296;1243;61400;-72
2023/08/16 04:02:58;;;;;;;17.50;10.40;;;;;;;21.98;100.00;101515.50;108538;1238;73364;-72
2023/08/16 04:05:28;;;;;;;18.80;10.00;;;;;;;21.98;100.00;101517.43;108550;1241;62359;-72
2023/08/16 04:07:57;;;;;;;13.80;9.50;;;;;;;21.99;100.00;101514.45;108507;1243;59459;-73
2023/08/16 04:10:26;;;;;;;15.40;9.30;;;;;;;22.01;100.00;101516.29;108425;1242;65078;-74
2023/08/16 04:12:55;;;;;;;15.00;9.50;;;;;;;22.00;100.00;101519.19;108513;1242;57547;-73
2023/08/16 04:15:24;;;;;;;15.20;9.90;;;;;;;21.97;100.00;101520.36;108435;1240;57780;-73
2023/08/16 04:17:54;;;;;;;19.30;10.20;;;;;;;21.97;100.00;101524.05;108228;1242;73474;-72
2023/08/16 04:20:24;;;;;;;13.10;8.70;;;;;;;22.01;100.00;101521.23;107760;1242;61437;-72
2023/08/16 04:22:54;;;;;;;25.20;13.00;;;;;;;22.06;100.00;101526.67;107405;1245;59057;-73
2023/08/16 04:25:23;;;;;;;21.50;12.80;;;;;;;22.04;100.00;101535.09;107424;1242;72792;-75
2023/08/16 04:27:52;;;;;;;22.40;12.00;;;;;;;22.00;100.00;101533.53;107487;1242;59062;-73
2023/08/16 04:30:22;;;;;;;19.10;10.80;;;;;;;21.93;100.00;101531.80;107487;1242;57670;-74
2023/08/16 04:32:51;;;;;;;16.70;10.30;;;;;;;21.86;100.00;101539.33;107355;1243;62815;-73
2023/08/16 04:35:20;;;;;;;15.20;11.00;;;;;;;21.75;100.00;101543.84;107426;1242;71427;-73
2023/08/16 04:37:48;;;;;;;13.60;9.60;;;;;;;21.91;100.00;101549.46;107386;1239;70651;-74
2023/08/16 04:40:18;;;;;;;18.10;10.60;;;;;;;21.81;100.00;101552.55;107233;1252;74451;-74
2023/08/16 04:42:47;;;;;;;19.30;10.60;;;;;;;21.71;100.00;101550.11;107462;1245;59102;-73
2023/08/16 04:45:16;;;;;;;17.30;10.80;;;;;;;21.70;100.00;101553.52;107620;1252;58229;-72
2023/08/16 04:47:45;;;;;;;17.20;11.90;;;;;;;21.75;100.00;101552.35;107562;1240;73355;-74
2023/08/16 04:50:15;;;;;;;27.10;11.60;;;;;;;21.80;100.00;101554.35;107500;1245;62007;-75
2023/08/16 04:52:44;;;;;;;29.30;11.80;;;;;;;21.83;100.00;101563.90;107620;1242;59771;-75
2023/08/16 04:55:14;;;;;;;18.40;11.50;;;;;;;21.91;100.00;101567.13;107635;1249;63039;-72
2023/08/16 04:57:43;;;;;;;15.80;10.90;;;;;;;21.99;100.00;101558.44;107431;1246;61382;-75
2023/08/16 05:00:13;;;;;;;20.70;10.80;;;;;;;22.07;100.00;101558.27;107713;1242;59096;-73
2023/08/16 05:15:45;;;;;;;14.40;9.70;;;;;;;22.51;100.00;101558.15;103857;1281;601691;-73
2023/08/16 05:18:14;;;;;;;11.60;8.80;;;;;;;22.56;100.00;101557.58;106112;1261;57529;-76
2023/08/16 05:20:44;;;;;;;16.90;9.40;;;;;;;22.62;100.00;101558.93;106798;1248;61093;-77
2023/08/16 05:23:13;;;;;;;16.80;9.00;;;;;;;22.74;100.00;101564.48;106711;1247;72013;-66
2023/08/16 05:25:42;;;;;;;18.70;9.80;;;;;;;22.69;100.00;101566.08;106852;1250;72587;-68
2023/08/16 05:28:11;;;;;;;19.60;10.00;;;;;;;22.60;100.00;101573.48;106870;1248;69049;-70
2023/08/16 05:30:40;;;;;;;25.00;11.50;;;;;;;22.31;100.00;101552.51;106902;1258;72649;-70
2023/08/16 05:33:09;;;;;;;15.00;11.30;;;;;;;22.57;100.00;101586.13;106960;1248;59091;-68
2023/08/16 05:35:38;;;;;;;20.40;10.20;;;;;;;22.69;100.00;101592.05;107080;1259;57547;-69
2023/08/16 05:38:07;;;;;;;23.10;10.30;;;;;;;22.85;100.00;101592.19;106913;1259;63132;-66
2023/08/16 05:40:36;;;;;;;27.50;10.50;;;;;;;23.04;100.00;101591.66;106868;1252;72432;-70
2023/08/16 05:43:08;;;;;;;16.40;9.60;;;;;;;23.22;100.00;101594.51;107006;1248;60793;-71
2023/08/16 05:45:37;;;;;;;18.80;9.50;;;;;;;23.47;100.00;101595.59;107018;1248;64456;-68
2023/08/16 05:48:06;;;;;;;15.00;9.00;;;;;;;23.79;100.00;101593.78;107035;1249;58952;-66
2023/08/16 05:50:36;;;;;;;16.80;9.90;;;;;;;24.02;99.65;101592.66;106869;1248;59158;-68
2023/08/16 05:53:09;;;;;;;15.30;9.20;;;;;;;24.26;98.85;101591.45;107544;1249;61708;-66
2023/08/16 05:55:38;;;;;;;20.20;9.70;;;;;;;24.51;97.59;101591.05;107065;1248;61696;-67
2023/08/16 05:58:08;;;;;;;15.40;9.40;;;;;;;24.70;94.03;101587.71;107042;1248;68868;-66
2023/08/16 06:00:36;;;;;;;15.30;8.80;;;;;;;24.90;94.29;101588.70;107072;1248;73386;-68
2023/08/16 06:03:06;;;;;;;18.50;8.00;;;;;;;25.18;91.63;101585.30;106893;1249;60116;-68
2023/08/16 06:05:35;;;;;;;9.90;7.60;;;;;;;25.45;91.38;101586.82;107087;1248;58974;-68
2023/08/16 06:08:04;;;;;;;13.40;8.40;;;;;;;25.75;88.22;101586.97;107100;1247;62452;-68
2023/08/16 06:10:33;;;;;;;15.50;8.10;;;;;;;26.05;86.92;101586.75;107018;1258;61474;-67
2023/08/16 06:13:03;;;;;;;15.20;7.60;;;;;;;26.36;85.87;101586.66;106923;1248;59242;-67
2023/08/16 06:15:32;;;;;;;15.60;8.90;;;;;;;26.60;83.33;101590.71;106874;1249;73133;-68
2023/08/16 06:18:01;;;;;;;12.00;7.50;;;;;;;26.87;83.77;101588.87;106983;1247;60799;-68
2023/08/16 06:20:29;;;;;;;15.60;8.60;;;;;;;27.02;82.80;101584.27;106987;1249;59532;-69
2023/08/16 06:22:58;;;;;;;14.40;7.50;;;;;;;27.21;81.08;101582.77;106977;1247;73506;-67
2023/08/16 06:25:27;;;;;;;14.30;7.80;;;;;;;27.24;79.48;101585.42;106991;1246;72980;-67
2023/08/16 06:27:56;;;;;;;13.00;7.60;;;;;;;27.37;79.53;101583.88;107025;1250;70216;-67
2023/08/16 06:30:25;;;;;;;15.70;7.60;;;;;;;27.45;79.21;101586.33;107034;1247;63882;-68
2023/08/16 06:32:54;;;;;;;10.20;7.00;;;;;;;27.50;77.36;101589.15;106875;1249;59080;-72
2023/08/16 06:35:24;;;;;;;11.60;7.10;;;;;;;27.60;77.65;101592.91;106705;1251;59050;-68
2023/08/16 06:37:53;;;;;;;11.20;7.70;;;;;;;27.53;76.42;101591.39;106698;1249;61969;-68
2023/08/16 06:40:22;;;;;;;17.50;7.50;;;;;;;27.45;76.32;101593.02;106857;1248;61140;-68
2023/08/16 06:42:51;;;;;;;11.50;7.40;;;;;;;27.52;76.56;101594.08;106978;1247;59189;-66
2023/08/16 06:45:20;;;;;;;12.10;7.90;;;;;;;27.52;76.98;101595.11;106936;1258;62367;-68
2023/08/16 06:47:49;;;;;;;13.80;8.30;;;;;;;27.51;76.74;101595.67;106976;1256;59122;-68
2023/08/16 06:50:18;;;;;;;11.20;8.30;;;;;;;27.71;76.93;101594.29;106809;1251;59059;-68
2023/08/16 06:52:47;;;;;;;11.20;8.20;;;;;;;27.81;76.97;101595.13;106953;1248;61744;-68
2023/08/16 06:55:16;;;;;;;13.50;8.60;;;;;;;27.74;77.00;101593.30;106962;1248;62032;-68
2023/08/16 06:57:45;;;;;;;14.10;9.30;;;;;;;27.75;76.82;101594.02;106966;1246;70171;-67
2023/08/16 07:00:17;;;;;;;18.00;9.10;;;;;;;27.70;77.17;101594.59;106962;1259;73552;-68
2023/08/16 07:02:46;;;;;;;12.30;8.70;;;;;;;27.75;76.55;101597.63;107583;1249;61013;-67
2023/08/16 07:05:15;;;;;;;18.50;10.20;;;;;;;27.94;75.99;101599.26;107032;1248;58944;-68
2023/08/16 07:07:45;;;;;;;16.20;9.40;;;;;;;27.99;76.42;101603.34;107094;1259;73197;-68
2023/08/16 07:10:17;;;;;;;18.60;9.40;;;;;;;28.21;75.96;101601.67;106872;1248;72836;-68
2023/08/16 07:12:46;;;;;;;16.80;9.20;;;;;;;28.35;74.41;101603.92;106990;1248;61717;-68
2023/08/16 07:15:15;;;;;;;14.00;8.40;;;;;;;28.60;72.85;101602.23;106952;1248;74425;-68
2023/08/16 07:17:44;;;;;;;10.40;7.50;;;;;;;28.86;71.34;101601.90;107028;1248;60574;-68
2023/08/16 07:20:13;;;;;;;12.80;8.00;;;;;;;28.87;69.70;101599.21;107013;1248;60576;-67
2023/08/16 07:22:42;;;;;;;11.20;7.60;;;;;;;28.76;69.98;101599.90;107049;1248;63544;-69
2023/08/16 07:25:12;;;;;;;12.40;7.50;;;;;;;28.70;69.68;101596.89;106925;1247;72166;-67
2023/08/16 07:27:40;;;;;;;15.90;8.00;;;;;;;28.62;71.13;101592.10;107036;1247;61775;-68
2023/08/16 07:30:11;;;;;;;14.10;8.40;;;;;;;28.77;71.61;101588.77;107034;1253;73323;-68
2023/08/16 07:32:39;;;;;;;14.30;8.70;;;;;;;28.79;71.73;101587.02;107042;1248;60898;-67
2023/08/16 07:35:09;;;;;;;13.20;7.90;;;;;;;28.78;71.69;101586.77;107099;1248;58252;-67
2023/08/16 07:37:38;;;;;;;20.60;8.70;;;;;;;28.57;72.50;101592.45;107072;1259;61629;-68
2023/08/16 07:40:08;;;;;;;15.10;8.10;;;;;;;28.57;72.38;101586.65;107050;1249;61426;-68
2023/08/16 07:42:37;;;;;;;14.80;8.40;;;;;;;28.91;70.96;101587.17;107049;1257;69639;-68
2023/08/16 07:45:07;;;;;;;15.90;8.20;;;;;;;29.01;70.46;101590.86;107020;1250;73132;-68
2023/08/16 07:47:35;;;;;;;16.00;8.20;;;;;;;29.09;71.01;101587.84;106912;1248;61115;-68
2023/08/16 07:50:05;;;;;;;13.20;8.70;;;;;;;29.11;70.80;101586.52;106901;1248;59502;-68
2023/08/16 07:52:34;;;;;;;15.30;8.00;;;;;;;29.25;69.46;101584.94;106712;1247;62476;-68
2023/08/16 07:55:04;;;;;;;16.80;8.20;;;;;;;29.36;69.38;101582.93;106894;1247;61217;-67
2023/08/16 07:57:33;;;;;;;16.20;8.30;;;;;;;29.39;68.17;101578.52;106993;1248;70273;-69
2023/08/16 08:00:04;;;;;;;13.40;7.40;;;;;;;29.43;66.95;101578.82;106950;1256;72639;-68
2023/08/16 08:02:41;;;;;;;12.00;7.00;;;;;;;29.49;66.98;101578.62;106969;1256;61339;-69
2023/08/16 08:05:25;;;;;;;11.50;7.30;;;;;;;29.64;66.17;101581.20;106907;1251;58968;-71
2023/08/16 08:07:54;;;;;;;13.50;7.10;;;;;;;29.64;66.13;101580.88;106961;1246;62142;-69
2023/08/16 08:10:23;;;;;;;12.20;7.30;;;;;;;29.75;66.05;101581.81;106924;1248;61212;-69
2023/08/16 08:12:52;;;;;;;9.60;6.80;;;;;;;29.77;65.15;101585.65;107025;1248;69548;-69
2023/08/16 08:15:21;;;;;;;13.00;7.40;;;;;;;29.79;64.63;101583.34;107037;1248;73494;-67
2023/08/16 08:17:50;;;;;;;9.20;6.70;;;;;;;29.79;65.59;101578.91;106984;1248;57441;-70
2023/08/16 08:20:19;;;;;;;9.70;6.80;;;;;;;30.13;64.88;101580.30;107065;1249;57478;-71
2023/08/16 08:22:48;;;;;;;8.30;6.60;;;;;;;30.34;63.30;101578.40;107024;1248;62464;-70
2023/08/16 08:25:17;;;;;;;11.50;7.00;;;;;;;30.40;63.66;101574.75;107007;1249;60939;-67
2023/08/16 08:27:46;;;;;;;11.60;7.10;;;;;;;30.51;63.16;101574.07;106990;1259;59476;-67
2023/08/16 08:30:16;;;;;;;9.60;6.60;;;;;;;30.43;61.84;101570.31;107088;1249;64578;-68
2023/08/16 08:32:45;;;;;;;8.20;6.90;;;;;;;30.54;61.46;101562.86;107069;1246;59039;-69
2023/08/16 08:35:15;;;;;;;9.40;6.90;;;;;;;30.55;60.85;101562.41;106975;1259;61438;-68
2023/08/16 08:37:44;;;;;;;10.60;7.00;;;;;;;30.55;61.63;101560.51;107037;1259;72366;-68
2023/08/16 08:40:13;;;;;;;9.70;7.10;;;;;;;30.70;61.53;101557.92;106980;1259;64130;-70
2023/08/16 08:42:48;;;;;;;9.40;6.20;;;;;;;30.90;60.02;101559.86;106963;1257;60648;-69
2023/08/16 08:45:17;;;;;;;12.20;7.40;;;;;;;30.51;59.94;101557.39;107001;1248;62613;-68
2023/08/16 08:47:47;;;;;;;9.10;6.40;;;;;;;30.48;61.21;101553.77;107012;1248;58960;-68
2023/08/16 08:50:16;;;;;;;8.50;6.30;;;;;;;30.50;60.39;101552.70;107044;1249;57880;-67
2023/08/16 08:52:51;;;;;;;9.90;6.70;;;;;;;30.64;60.34;101549.05;106991;1254;63057;-67
2023/08/16 08:55:20;;;;;;;10.20;6.40;;;;;;;30.96;60.30;101550.88;106768;1259;61636;-67
2023/08/16 08:57:50;;;;;;;11.70;6.90;;;;;;;31.10;59.02;101543.94;107058;1259;59005;-68
2023/08/16 09:00:20;;;;;;;9.30;6.40;;;;;;;31.23;58.34;101538.97;107055;1259;62461;-68
2023/08/16 09:02:50;;;;;;;9.10;6.40;;;;;;;31.17;57.62;101536.80;106937;1259;57878;-71
2023/08/16 09:05:22;;;;;;;9.40;6.70;;;;;;;31.19;56.89;101536.73;106974;1255;61234;-69
2023/08/16 09:07:52;;;;;;;;;;;;;;;31.11;58.11;101531.80;106959;1256;64984;-69
2023/08/16 09:10:22;;;;;;;7.70;6.10;;;;;;;31.19;58.25;101528.95;106817;1247;72372;-69
2023/08/16 09:12:51;;;;;;;7.50;6.00;;;;;;;31.14;58.31;101526.44;106722;1255;61063;-69
2023/08/16 09:15:20;;;;;;;8.40;6.40;;;;;;;31.25;58.41;101526.77;106758;1249;73497;-70
2023/08/16 09:17:50;;;;;;;8.70;6.60;;;;;;;31.29;57.34;101526.83;106857;1248;60961;-67
2023/08/16 09:20:20;;;;;;;8.50;6.90;;;;;;;31.61;57.31;101526.81;106853;1248;60683;-67
2023/08/16 09:22:49;;;;;;;8.70;5.60;;;;;;;31.75;55.77;101520.88;106937;1248;62531;-67
2023/08/16 09:25:18;;;;;;;8.30;5.80;;;;;;;31.63;55.00;101518.89;106982;1255;60919;-68
2023/08/16 09:27:47;;;;;;;8.80;5.90;;;;;;;31.66;55.48;101517.77;107068;1256;59211;-68
2023/08/16 09:30:17;;;;;;;11.00;6.10;;;;;;;31.60;56.09;101511.51;107001;1245;73781;-71
2023/08/16 09:32:46;;;;;;;8.30;5.50;;;;;;;31.76;55.21;101508.68;106980;1245;60972;-69
2023/08/16 09:35:16;;;;;;;7.80;6.40;;;;;;;31.95;54.13;101500.95;107037;1244;59901;-69
2023/08/16 09:37:45;;;;;;;9.30;6.00;;;;;;;32.14;53.63;101501.02;107048;1246;63278;-70
2023/08/16 09:40:15;;;;;;;9.40;6.50;;;;;;;32.18;53.23;101495.81;107088;1249;61149;-70
2023/08/16 09:42:44;;;;;;;9.00;5.50;;;;;;;32.22;52.90;101501.90;107228;1245;59766;-70
2023/08/16 09:45:13;;;;;;;7.10;5.30;;;;;;;32.36;52.41;101496.78;107179;1245;71633;-71
2023/08/16 09:47:45;;;;;;;7.60;5.10;;;;;;;32.46;51.30;101491.00;107061;1248;59162;-71
2023/08/16 09:50:21;;;;;;;8.10;5.20;;;;;;;32.44;50.67;101490.84;107058;1244;58697;-70
2023/08/16 09:52:52;;;;;;;7.70;5.60;;;;;;;32.19;50.85;101489.73;106945;1246;72917;-70
2023/08/16 09:55:30;;;;;;;7.00;6.00;;;;;;;32.23;52.14;101485.55;106887;1245;72637;-70
2023/08/16 09:58:00;;;;;;;6.10;5.00;;;;;;;32.52;51.79;101484.98;106869;1246;60375;-70
2023/08/16 10:00:32;;;;;;;9.50;5.40;;;;;;;32.53;49.81;101480.63;108809;1245;73540;-71
2023/08/16 10:03:03;;;;;;;8.50;5.10;;;;;;;32.75;49.38;101481.55;106931;1255;61597;-70
2023/08/16 10:05:32;;;;;;;6.60;5.10;;;;;;;32.79;49.28;101470.59;106994;1245;57537;-70
2023/08/16 10:08:14;;;;;;;9.80;5.50;;;;;;;32.93;48.40;101469.43;107568;1249;62727;-71
2023/08/16 10:10:44;;;;;;;6.10;5.40;;;;;;;33.15;48.78;101468.45;106978;1246;71258;-70
2023/08/16 10:13:14;;;;;;;9.10;6.20;;;;;;;33.38;49.01;101469.30;106770;1245;61378;-69
2023/08/16 10:15:46;;;;;;;8.10;5.70;;;;;;;33.45;48.20;101468.55;106955;1245;62474;-70
2023/08/16 10:18:19;;;;;;;6.20;4.90;;;;;;;33.34;48.15;101468.35;106929;1245;58981;-70
2023/08/16 10:20:53;;;;;;;8.30;5.10;;;;;;;33.34;48.20;101465.76;106923;1255;57442;-70
2023/08/16 10:23:23;;;;;;;8.40;5.90;;;;;;;33.57;48.73;101466.38;106968;1245;63698;-71
2023/08/16 10:25:54;;;;;;;6.00;4.70;;;;;;;33.44;47.40;101463.98;106952;1251;63643;-69
2023/08/16 10:28:25;;;;;;;6.30;4.90;;;;;;;33.30;46.91;101452.90;106937;1245;71017;-73
2023/08/16 10:30:57;;;;;;;8.60;4.80;;;;;;;33.36;46.86;101456.93;106959;1257;63444;-74
2023/08/16 10:33:46;;;;;;;6.70;4.80;;;;;;;33.73;46.41;101458.52;107129;1253;60683;-73
2023/08/16 10:36:16;;;;;;;6.50;4.70;;;;;;;34.12;45.00;101454.02;108880;1245;57833;-74
2023/08/16 10:38:55;;;;;;;4.90;4.10;;;;;;;34.62;43.57;101455.06;107862;1245;65215;-74
2023/08/16 10:41:27;;;;;;;7.30;4.10;;;;;;;34.85;41.37;101451.45;107029;1246;61500;-74
2023/08/16 10:43:56;;;;;;;10.40;4.60;;;;;;;34.98;40.03;101449.60;107194;1245;60309;-74
2023/08/16 10:46:34;;;;;;;8.10;4.40;;;;;;;35.03;39.38;101448.29;107115;1245;62739;-73
2023/08/16 10:49:06;;;;;;;4.50;3.60;;;;;;;35.03;38.47;101441.55;107206;1248;59065;-73
2023/08/16 10:51:52;;;;;;;7.20;4.30;;;;;;;35.14;38.36;101440.59;107006;1245;59833;-74
2023/08/16 10:54:35;;;;;;;6.50;4.30;;;;;;;35.00;38.72;101438.98;107332;1244;65057;-75
2023/08/16 10:57:08;;;;;;;5.40;4.50;;;;;;;35.02;38.65;101433.45;107286;1255;63831;-74
2023/08/16 10:59:42;;;;;;;8.50;3.90;;;;;;;34.79;39.84;101431.61;107374;1245;70737;-75
2023/08/16 11:02:16;;;;;;;6.00;3.60;;;;;;;35.27;39.34;101429.67;107402;1243;73891;-71
2023/08/16 11:04:46;;;;;;;9.00;4.40;;;;;;;35.26;39.70;101428.58;107380;1245;59007;-77
2023/08/16 11:07:17;;;;;;;5.60;4.20;;;;;;;35.24;39.51;101430.19;107414;1245;59135;-77
2023/08/16 11:09:46;;;;;;;7.70;4.20;;;;;;;35.87;38.05;101424.20;107201;1256;61978;-84
2023/08/16 11:12:16;;;;;;;6.70;4.10;;;;;;;36.34;37.58;101422.17;107355;1245;61166;-77
2023/08/16 11:14:49;;;;;;;6.20;4.10;;;;;;;35.93;37.79;101426.89;107260;1253;69765;-75
2023/08/16 11:17:18;;;;;;;9.00;4.30;;;;;;;36.37;37.78;101422.62;107370;1245;74531;-74
2023/08/16 11:19:47;;;;;;;8.70;4.00;;;;;;;35.62;37.84;101422.52;107360;1244;59018;-76
2023/08/16 11:22:16;;;;;;;4.70;3.50;;;;;;;35.72;37.79;101422.77;107291;1244;59043;-76
2023/08/16 11:24:47;;;;;;;7.40;3.70;;;;;;;35.93;37.04;101416.27;107367;1245;61976;-77
2023/08/16 11:27:23;;;;;;;7.00;3.90;;;;;;;35.95;37.17;101415.89;107164;1245;72361;-77
2023/08/16 11:29:59;;;;;;;5.50;3.90;;;;;;;36.36;36.70;101412.77;107325;1247;60923;-76
2023/08/16 11:32:37;;;;;;;5.60;3.80;;;;;;;36.31;36.40;101410.66;107150;1248;63157;-76
2023/08/16 11:35:14;;;;;;;4.90;3.80;;;;;;;36.65;36.54;101406.60;107233;1245;58290;-76